Date,TemperatureHighF,TemperatureAvgF,TemperatureLowF,DewpointHighF,DewpointAvgF,DewpointLowF,HumidityHigh,HumidityAvg,HumidityLow,PressureMaxIn,PressureMinIn,WindSpeedMaxMPH,WindSpeedAvgMPH,GustSpeedMaxMPH,PrecipitationSumIn
2013-8-1,79,66,57,66,63,55,99,89,54,30.11,30.06,8,1,8,0.06
2013-8-2,74,62,51,66,60,51,99,91,66,30.12,30.04,8,1,8,0.00
2013-8-3,82,73,67,69,66,58,97,80,56,29.81,29.68,4,0,4,0.00
2013-8-4,80,69,55,71,62,55,99,81,63,29.97,29.64,5,1,5,2.46
2013-8-5,70,62,52,64,59,51,99,90,66,29.93,29.77,4,0,4,0.00
2013-8-6,78,68,62,73,67,61,99,96,78,29.77,29.69,6,0,6,0.07
2013-8-7,81,70,63,77,69,63,99,98,86,29.75,29.64,7,0,7,0.20
2013-8-8,77,69,63,71,66,62,99,91,75,29.83,29.71,5,1,5,0.00
2013-8-9,81,68,57,68,62,57,99,84,55,29.82,29.76,5,1,5,0.00
2013-8-10,77,66,59,67,63,59,99,88,67,29.94,29.82,4,0,4,0.00
2013-8-11,78,67,56,68,62,55,99,87,63,29.93,29.84,5,0,5,0.00
2013-8-12,70,65,63,70,65,62,99,99,96,29.87,29.66,3,0,3,1.11
2013-8-13,66,61,53,64,56,50,99,86,65,29.86,29.65,7,1,7,0.00
2013-8-14,70,58,49,59,54,48,99,87,62,29.97,29.86,8,1,8,0.00
2013-8-15,72,59,46,62,54,45,99,86,56,29.97,29.89,4,1,4,0.00
2013-8-16,78,63,49,65,58,49,99,85,52,30.01,29.92,8,0,8,0.00
2013-8-17,80,64,50,67,59,50,99,85,56,30.07,29.99,5,0,5,0.00
2013-8-18,82,66,53,72,61,53,99,86,55,30.02,29.91,4,0,4,0.00
2013-8-19,83,67,54,70,61,54,99,84,49,29.93,29.85,8,0,8,0.00
2013-8-20,85,70,56,73,65,55,99,88,59,29.95,29.88,6,0,6,0.00
2013-8-21,84,71,60,78,69,60,99,94,73,29.94,29.80,7,0,7,0.19
2013-8-22,81,72,66,74,70,66,99,94,79,29.85,29.76,4,0,4,0.00
2013-8-23,81,69,57,69,62,55,99,82,44,30.75,29.85,6,1,6,0.00
2013-8-24,82,67,54,69,61,54,99,85,54,30.11,30.01,6,1,6,0.00
2013-8-25,86,70,55,72,64,13,99,85,55,30.10,29.95,5,1,5,0.00
2013-8-26,86,75,65,78,72,65,99,90,72,29.97,29.79,5,1,5,0.00
2013-8-27,83,75,70,81,75,70,99,98,92,29.82,29.64,5,0,5,0.35
2013-8-28,80,75,68,79,74,68,99,98,92,29.82,29.60,4,0,4,0.21
2013-8-29,87,73,63,77,71,63,99,92,66,29.88,29.81,4,0,4,0.00
2013-8-30,87,75,64,76,71,63,99,89,65,29.82,29.56,8,1,8,0.00
2013-8-31,79,73,66,76,71,65,99,94,82,29.66,29.56,4,0,4,0.00